Time;durP1;ratioP1;P1;durP2;ratioP2;P2;SDS_P1;SDS_P2;PMS_P1;PMS_P2;Temp;Humidity;BMP_temperature;BMP_pressure;BME280_temperature;BME280_humidity;BME280_pressure;Samples;Min_cycle;Max_cycle;Signal;HPM_P1;HPM_P2
2021/08/06 00:01:23;;;;;;;9.05;7.68;;;;;;;;;;5076708;28;20016;-48
2021/08/06 00:03:49;;;;;;;9.20;6.78;;;;;;;;;;5072417;28;20031;-48
2021/08/06 00:06:15;;;;;;;9.40;7.88;;;;;;;;;;5060518;28;20025;-48
2021/08/06 00:08:41;;;;;;;9.70;7.75;;;;;;;;;;5088347;28;20060;-48
2021/08/06 00:11:08;;;;;;;9.70;7.63;;;;;;;;;;5077451;28;20037;-49
2021/08/06 00:13:34;;;;;;;13.57;7.88;;;;;;;;;;5071424;28;20093;-48
2021/08/06 00:16:00;;;;;;;13.73;7.93;;;;;;;;;;5068591;28;20041;-48
2021/08/06 00:18:26;;;;;;;10.73;8.80;;;;;;;;;;5087365;28;20104;-49
2021/08/06 00:20:53;;;;;;;8.93;7.07;;;;;;;;;;5069451;28;20059;-48
2021/08/06 00:23:19;;;;;;;8.90;6.88;;;;;;;;;;5071014;28;20457;-48
2021/08/06 00:25:45;;;;;;;9.75;7.80;;;;;;;;;;5057800;28;20485;-51
2021/08/06 00:28:11;;;;;;;9.40;7.72;;;;;;;;;;5064761;28;20029;-48
2021/08/06 00:30:37;;;;;;;11.30;7.03;;;;;;;;;;5058436;28;20024;-49
2021/08/06 00:33:04;;;;;;;8.00;6.97;;;;;;;;;;5078543;28;20041;-48
2021/08/06 00:35:30;;;;;;;9.77;7.95;;;;;;;;;;5060369;28;20120;-48
2021/08/06 00:37:56;;;;;;;10.32;6.80;;;;;;;;;;5084371;28;20625;-48
2021/08/06 00:40:22;;;;;;;16.08;9.32;;;;;;;;;;5074186;28;20111;-48
2021/08/06 00:42:49;;;;;;;8.10;7.20;;;;;;;;;;5065337;28;20108;-49
2021/08/06 00:45:15;;;;;;;13.90;7.95;;;;;;;;;;5068053;28;20046;-48
2021/08/06 00:47:41;;;;;;;8.75;7.50;;;;;;;;;;5079303;28;20033;-48
2021/08/06 00:50:08;;;;;;;8.30;7.25;;;;;;;;;;5084817;28;20110;-49
2021/08/06 00:52:34;;;;;;;9.13;7.28;;;;;;;;;;5060691;28;20035;-48
2021/08/06 00:55:00;;;;;;;10.60;7.65;;;;;;;;;;5075524;28;20024;-49
2021/08/06 00:57:26;;;;;;;14.23;7.85;;;;;;;;;;5073733;28;20027;-48
2021/08/06 00:59:52;;;;;;;10.73;8.15;;;;;;;;;;5062749;28;20031;-48
2021/08/06 01:02:22;;;;;;;9.80;7.93;;;;;;;;;;5062492;28;20174;-50
2021/08/06 01:04:55;;;;;;;9.82;7.68;;;;;;;;;;5070601;28;20035;-50
2021/08/06 01:07:28;;;;;;;10.80;8.00;;;;;;;;;;5074886;28;20131;-53
2021/08/06 01:09:57;;;;;;;8.05;7.25;;;;;;;;;;5065892;28;20384;-49
2021/08/06 01:12:27;;;;;;;13.88;7.28;;;;;;;;;;5058576;28;20107;-50
2021/08/06 01:14:53;;;;;;;7.82;6.95;;;;;;;;;;5074215;28;20111;-49
2021/08/06 01:17:22;;;;;;;11.73;7.00;;;;;;;;;;5082822;28;20126;-51
2021/08/06 01:20:08;;;;;;;12.10;6.32;;;;;;;;;;5072046;28;20111;-49
2021/08/06 01:22:40;;;;;;;7.57;6.78;;;;;;;;;;5056848;28;20499;-52
2021/08/06 01:25:29;;;;;;;7.65;6.35;;;;;;;;;;5077549;28;20032;-52
2021/08/06 01:27:55;;;;;;;6.80;5.82;;;;;;;;;;5075500;28;20122;-51
2021/08/06 01:30:21;;;;;;;8.30;6.53;;;;;;;;;;5071275;28;20036;-50
2021/08/06 01:32:47;;;;;;;7.25;6.47;;;;;;;;;;5065655;28;20034;-51
2021/08/06 01:35:13;;;;;;;7.55;5.55;;;;;;;;;;5054885;28;20538;-50
2021/08/06 01:37:39;;;;;;;7.38;6.63;;;;;;;;;;5080759;28;20043;-53
2021/08/06 01:40:07;;;;;;;9.98;5.72;;;;;;;;;;5084310;28;20028;-50
2021/08/06 01:42:43;;;;;;;8.20;6.30;;;;;;;;;;5065724;28;20060;-50
2021/08/06 01:45:12;;;;;;;12.65;6.55;;;;;;;;;;5062635;28;20466;-50
2021/08/06 01:47:44;;;;;;;8.90;5.93;;;;;;;;;;5070338;28;20040;-51
2021/08/06 01:50:15;;;;;;;7.60;6.85;;;;;;;;;;5069442;28;20054;-49
2021/08/06 01:52:49;;;;;;;8.20;6.43;;;;;;;;;;5070713;28;20123;-50
2021/08/06 01:55:16;;;;;;;7.03;6.32;;;;;;;;;;5068106;28;20021;-50
2021/08/06 01:57:44;;;;;;;8.05;6.88;;;;;;;;;;5076567;28;20034;-50
2021/08/06 02:00:10;;;;;;;8.95;7.10;;;;;;;;;;5062989;28;20500;-50
2021/08/06 02:02:38;;;;;;;7.40;6.70;;;;;;;;;;5077787;28;20063;-49
2021/08/06 02:05:04;;;;;;;9.77;6.97;;;;;;;;;;5075071;28;20021;-51
2021/08/06 02:07:30;;;;;;;9.98;6.28;;;;;;;;;;5078093;28;20036;-50
2021/08/06 02:09:56;;;;;;;9.25;6.32;;;;;;;;;;5072457;28;20547;-50
2021/08/06 02:12:22;;;;;;;6.28;5.65;;;;;;;;;;5070114;28;20062;-49
2021/08/06 02:14:48;;;;;;;7.50;6.32;;;;;;;;;;5071434;28;20349;-50
2021/08/06 02:17:15;;;;;;;7.80;6.55;;;;;;;;;;5056598;28;20481;-51
2021/08/06 02:19:42;;;;;;;7.57;6.72;;;;;;;;;;5072398;28;20107;-51
2021/08/06 02:22:09;;;;;;;11.85;6.38;;;;;;;;;;5061272;28;20150;-50
2021/08/06 02:24:37;;;;;;;10.88;6.50;;;;;;;;;;5085917;28;20032;-53
2021/08/06 02:27:03;;;;;;;7.68;6.10;;;;;;;;;;5069028;28;20120;-52
2021/08/06 02:29:30;;;;;;;10.13;6.55;;;;;;;;;;5068648;28;20036;-51
2021/08/06 02:31:57;;;;;;;9.57;7.43;;;;;;;;;;5078203;28;20055;-51
2021/08/06 02:34:24;;;;;;;10.20;6.93;;;;;;;;;;5082677;28;20100;-51
2021/08/06 02:36:50;;;;;;;8.10;6.50;;;;;;;;;;5052177;28;20033;-50
2021/08/06 02:39:17;;;;;;;8.00;6.65;;;;;;;;;;5087318;28;20101;-49
2021/08/06 02:41:43;;;;;;;12.50;7.20;;;;;;;;;;5078734;28;20044;-51
2021/08/06 02:44:10;;;;;;;7.85;6.90;;;;;;;;;;5075212;28;20024;-50
2021/08/06 02:46:36;;;;;;;6.97;6.28;;;;;;;;;;5072517;28;20025;-50
2021/08/06 02:49:03;;;;;;;6.80;6.00;;;;;;;;;;5078973;28;20112;-51
2021/08/06 02:51:29;;;;;;;8.10;6.50;;;;;;;;;;5052779;28;20029;-51
2021/08/06 02:53:55;;;;;;;9.52;6.57;;;;;;;;;;5061342;28;20499;-50
2021/08/06 02:56:21;;;;;;;6.45;5.85;;;;;;;;;;5065480;28;20120;-54
2021/08/06 02:58:47;;;;;;;9.30;7.38;;;;;;;;;;5091533;28;20081;-52
2021/08/06 03:01:13;;;;;;;9.85;6.63;;;;;;;;;;5063115;28;20805;-53
2021/08/06 03:03:39;;;;;;;8.65;6.65;;;;;;;;;;5068627;28;20027;-54
2021/08/06 03:06:04;;;;;;;8.23;6.78;;;;;;;;;;5067988;28;20364;-49
2021/08/06 03:08:30;;;;;;;11.55;7.32;;;;;;;;;;5091518;28;20435;-53
2021/08/06 03:10:56;;;;;;;10.82;7.03;;;;;;;;;;5072184;28;20154;-51
2021/08/06 03:13:22;;;;;;;9.13;7.10;;;;;;;;;;5066588;28;20078;-51
2021/08/06 03:15:48;;;;;;;10.23;6.50;;;;;;;;;;5060399;28;20029;-51
2021/08/06 03:18:14;;;;;;;11.70;7.97;;;;;;;;;;5084650;28;20035;-50
2021/08/06 03:20:40;;;;;;;10.30;7.80;;;;;;;;;;5074205;28;20155;-52
2021/08/06 03:23:06;;;;;;;10.60;8.18;;;;;;;;;;5074036;28;20382;-50
2021/08/06 03:25:32;;;;;;;10.20;8.43;;;;;;;;;;5066450;28;20056;-51
2021/08/06 03:27:58;;;;;;;13.35;8.18;;;;;;;;;;5078115;28;20078;-51
2021/08/06 03:30:25;;;;;;;9.98;8.05;;;;;;;;;;5061445;28;20025;-51
2021/08/06 03:32:51;;;;;;;14.73;8.27;;;;;;;;;;5077346;28;20107;-50
2021/08/06 03:35:17;;;;;;;10.18;8.35;;;;;;;;;;5085445;28;20014;-52
2021/08/06 03:37:43;;;;;;;9.82;8.23;;;;;;;;;;5094715;28;20085;-52
2021/08/06 03:40:10;;;;;;;8.02;7.18;;;;;;;;;;5086666;28;20111;-53
2021/08/06 03:42:36;;;;;;;9.02;7.32;;;;;;;;;;5074883;28;20040;-53
2021/08/06 03:45:02;;;;;;;9.38;6.45;;;;;;;;;;5060099;28;20020;-50
2021/08/06 03:47:28;;;;;;;8.35;6.78;;;;;;;;;;5066688;28;20021;-51
2021/08/06 03:49:54;;;;;;;7.25;6.28;;;;;;;;;;5078744;28;20062;-50
2021/08/06 03:52:20;;;;;;;8.63;7.10;;;;;;;;;;5056208;28;20430;-51
2021/08/06 03:54:46;;;;;;;7.35;6.63;;;;;;;;;;5056278;28;20033;-51
2021/08/06 03:57:12;;;;;;;11.02;7.20;;;;;;;;;;5081685;28;20039;-51
2021/08/06 03:59:38;;;;;;;8.57;6.93;;;;;;;;;;5081022;28;20029;-51
2021/08/06 04:02:04;;;;;;;9.18;7.28;;;;;;;;;;5077200;28;20021;-50
2021/08/06 04:04:30;;;;;;;11.45;7.88;;;;;;;;;;5069729;28;20112;-51
2021/08/06 04:06:56;;;;;;;8.50;7.28;;;;;;;;;;5063840;28;20036;-52
2021/08/06 04:09:22;;;;;;;8.60;7.25;;;;;;;;;;5082796;28;20024;-52
2021/08/06 04:11:48;;;;;;;11.43;6.90;;;;;;;;;;5084385;28;20163;-50
2021/08/06 04:14:14;;;;;;;10.75;7.07;;;;;;;;;;5062906;28;20032;-53
2021/08/06 04:16:40;;;;;;;11.90;7.57;;;;;;;;;;5074447;28;20040;-52
2021/08/06 04:19:06;;;;;;;9.93;7.80;;;;;;;;;;5094190;28;20031;-51
2021/08/06 04:21:32;;;;;;;10.13;8.10;;;;;;;;;;5064883;28;20021;-50
2021/08/06 04:23:58;;;;;;;10.65;8.30;;;;;;;;;;5056531;28;20114;-51
2021/08/06 04:26:24;;;;;;;11.38;8.35;;;;;;;;;;5064577;28;20173;-53
2021/08/06 04:28:50;;;;;;;11.30;8.93;;;;;;;;;;5075596;28;20437;-52
2021/08/06 04:31:16;;;;;;;10.23;9.13;;;;;;;;;;5067464;28;20034;-50
2021/08/06 04:33:42;;;;;;;16.50;11.20;;;;;;;;;;5064148;28;20029;-51
2021/08/06 04:36:08;;;;;;;13.35;9.48;;;;;;;;;;5091820;28;20024;-51
2021/08/06 04:38:34;;;;;;;14.73;9.38;;;;;;;;;;5093494;28;20028;-51
2021/08/06 04:41:00;;;;;;;11.02;9.30;;;;;;;;;;5080027;28;20104;-53
2021/08/06 04:43:26;;;;;;;11.55;8.80;;;;;;;;;;5055349;28;20025;-50
2021/08/06 04:45:52;;;;;;;9.43;8.43;;;;;;;;;;5082269;28;20036;-50
2021/08/06 04:48:18;;;;;;;10.07;9.05;;;;;;;;;;5082262;28;20024;-51
2021/08/06 04:50:44;;;;;;;8.68;7.47;;;;;;;;;;5060468;28;20033;-51
2021/08/06 04:53:10;;;;;;;11.82;7.63;;;;;;;;;;5056458;28;20036;-52
2021/08/06 04:55:36;;;;;;;9.73;7.63;;;;;;;;;;5065050;28;20100;-51
2021/08/06 04:58:03;;;;;;;9.10;7.30;;;;;;;;;;5069326;28;20028;-51
2021/08/06 05:00:29;;;;;;;6.78;6.03;;;;;;;;;;5066335;28;20128;-53
2021/08/06 05:02:55;;;;;;;10.38;6.50;;;;;;;;;;5060646;28;20037;-51
2021/08/06 05:05:21;;;;;;;7.35;6.28;;;;;;;;;;5077984;28;20056;-50
2021/08/06 05:07:54;;;;;;;12.82;6.90;;;;;;;;;;5059967;28;20035;-53
2021/08/06 05:10:21;;;;;;;9.13;6.93;;;;;;;;;;5069517;28;20125;-50
2021/08/06 05:12:47;;;;;;;8.90;6.85;;;;;;;;;;5071367;28;20480;-50
2021/08/06 05:15:14;;;;;;;12.13;7.68;;;;;;;;;;5056632;28;20029;-50
2021/08/06 05:17:40;;;;;;;8.55;7.65;;;;;;;;;;5083668;28;20039;-50
2021/08/06 05:20:06;;;;;;;8.80;7.35;;;;;;;;;;5080392;28;20095;-51
2021/08/06 05:22:32;;;;;;;8.23;7.18;;;;;;;;;;5063120;28;20025;-50
2021/08/06 05:24:58;;;;;;;22.55;8.38;;;;;;;;;;5064823;28;20025;-50
2021/08/06 05:27:25;;;;;;;12.40;8.05;;;;;;;;;;5072442;28;20024;-50
2021/08/06 05:29:50;;;;;;;8.80;7.15;;;;;;;;;;5073353;28;20118;-50
2021/08/06 05:32:16;;;;;;;10.57;7.78;;;;;;;;;;5064455;28;20021;-50
2021/08/06 05:34:42;;;;;;;7.15;6.40;;;;;;;;;;5091434;28;20103;-50
2021/08/06 05:37:08;;;;;;;8.07;7.00;;;;;;;;;;5081643;28;20035;-53
2021/08/06 05:39:34;;;;;;;11.70;8.30;;;;;;;;;;5059208;28;20024;-50
2021/08/06 05:42:00;;;;;;;7.78;6.97;;;;;;;;;;5068477;28;20068;-50
2021/08/06 05:44:26;;;;;;;10.38;7.57;;;;;;;;;;5061183;28;20139;-50
2021/08/06 05:46:52;;;;;;;8.43;6.43;;;;;;;;;;5088982;28;20059;-50
2021/08/06 05:49:18;;;;;;;12.23;7.88;;;;;;;;;;5079423;28;20057;-50
2021/08/06 05:51:44;;;;;;;16.63;8.30;;;;;;;;;;5066666;28;20033;-51
2021/08/06 05:54:10;;;;;;;11.63;7.35;;;;;;;;;;5057117;28;20516;-51
2021/08/06 05:56:37;;;;;;;7.50;6.63;;;;;;;;;;5079200;28;20025;-51
2021/08/06 05:59:03;;;;;;;9.85;7.53;;;;;;;;;;5060571;28;20500;-52
2021/08/06 06:01:29;;;;;;;11.20;10.00;;;;;;;;;;5060493;28;20384;-50
2021/08/06 06:03:55;;;;;;;14.35;10.07;;;;;;;;;;5056899;28;20028;-52
2021/08/06 06:06:22;;;;;;;12.90;10.65;;;;;;;;;;5066898;28;20443;-52
2021/08/06 06:08:48;;;;;;;19.23;11.10;;;;;;;;;;5064820;28;20036;-50
2021/08/06 06:11:14;;;;;;;15.25;12.15;;;;;;;;;;5063302;28;20072;-53
2021/08/06 06:13:40;;;;;;;14.45;12.82;;;;;;;;;;5058158;28;20025;-51
2021/08/06 06:16:06;;;;;;;18.85;13.50;;;;;;;;;;5090900;28;20464;-50
2021/08/06 06:18:32;;;;;;;12.95;11.45;;;;;;;;;;5081935;28;20032;-51
2021/08/06 06:20:58;;;;;;;16.38;13.00;;;;;;;;;;5065171;28;20040;-51
2021/08/06 06:23:24;;;;;;;15.25;12.45;;;;;;;;;;5058892;28;20028;-50
2021/08/06 06:25:50;;;;;;;19.63;15.25;;;;;;;;;;5077287;28;20177;-51
2021/08/06 06:28:16;;;;;;;17.10;14.00;;;;;;;;;;5077165;28;20020;-50
2021/08/06 06:30:42;;;;;;;17.98;15.10;;;;;;;;;;5064217;28;20101;-51
2021/08/06 06:33:09;;;;;;;16.42;13.95;;;;;;;;;;5062916;28;20029;-51
2021/08/06 06:35:35;;;;;;;16.73;14.75;;;;;;;;;;5062871;28;20090;-50
2021/08/06 06:38:01;;;;;;;15.80;12.93;;;;;;;;;;5065163;28;20037;-50
2021/08/06 06:40:27;;;;;;;14.45;12.82;;;;;;;;;;5083935;28;20052;-50
2021/08/06 06:42:53;;;;;;;12.65;11.27;;;;;;;;;;5070924;28;20108;-51
2021/08/06 06:45:20;;;;;;;14.95;13.15;;;;;;;;;;5076697;28;20383;-50
2021/08/06 06:47:47;;;;;;;13.57;12.18;;;;;;;;;;5081955;28;20067;-52
2021/08/06 06:50:15;;;;;;;11.90;10.65;;;;;;;;;;5083131;28;20029;-51
2021/08/06 06:52:41;;;;;;;12.48;10.90;;;;;;;;;;5055796;28;20032;-56
2021/08/06 06:55:08;;;;;;;12.05;10.65;;;;;;;;;;5072216;28;20033;-51
2021/08/06 06:57:49;;;;;;;11.52;9.80;;;;;;;;;;5068405;28;20037;-52
2021/08/06 07:00:15;;;;;;;12.25;9.18;;;;;;;;;;5089045;28;20098;-54
2021/08/06 07:02:41;;;;;;;9.80;8.80;;;;;;;;;;5073146;28;20338;-52
2021/08/06 07:05:08;;;;;;;8.85;7.95;;;;;;;;;;5069958;28;20048;-50
2021/08/06 07:07:34;;;;;;;9.55;8.55;;;;;;;;;;5073891;28;20040;-50
2021/08/06 07:10:00;;;;;;;10.73;9.25;;;;;;;;;;5081957;28;20066;-51
2021/08/06 07:12:26;;;;;;;10.02;9.02;;;;;;;;;;5075382;28;20106;-53
2021/08/06 07:14:52;;;;;;;8.75;7.80;;;;;;;;;;5069161;28;20283;-53
2021/08/06 07:17:18;;;;;;;10.18;7.57;;;;;;;;;;5076113;28;20083;-52
2021/08/06 07:19:44;;;;;;;9.73;7.65;;;;;;;;;;5076267;28;20028;-51
2021/08/06 07:22:09;;;;;;;8.70;7.53;;;;;;;;;;5087184;28;20424;-52
2021/08/06 07:24:35;;;;;;;8.43;6.95;;;;;;;;;;5065192;28;20052;-52
2021/08/06 07:27:02;;;;;;;8.45;7.65;;;;;;;;;;5078070;28;20046;-52
2021/08/06 07:29:28;;;;;;;10.15;7.90;;;;;;;;;;5094663;28;20028;-53
2021/08/06 07:31:53;;;;;;;10.60;7.43;;;;;;;;;;5072621;28;20108;-53
2021/08/06 07:34:20;;;;;;;7.85;6.55;;;;;;;;;;5058644;28;20033;-53
2021/08/06 07:36:46;;;;;;;12.35;6.53;;;;;;;;;;5076711;28;20032;-54
2021/08/06 07:39:12;;;;;;;7.05;5.72;;;;;;;;;;5094803;28;20016;-51
2021/08/06 07:41:38;;;;;;;7.22;6.45;;;;;;;;;;5068328;28;20385;-50
2021/08/06 07:44:04;;;;;;;7.95;6.03;;;;;;;;;;5062859;28;20053;-51
2021/08/06 07:46:30;;;;;;;8.25;6.10;;;;;;;;;;5078549;28;20111;-51
2021/08/06 07:48:56;;;;;;;10.23;6.07;;;;;;;;;;5083592;28;20048;-51
2021/08/06 07:51:22;;;;;;;7.90;5.20;;;;;;;;;;5091585;28;20333;-51
2021/08/06 07:53:48;;;;;;;5.53;4.80;;;;;;;;;;5062670;28;20065;-53
2021/08/06 07:56:15;;;;;;;5.90;4.45;;;;;;;;;;5082698;28;20505;-54
2021/08/06 07:58:41;;;;;;;9.15;4.30;;;;;;;;;;5094044;28;20031;-55
2021/08/06 08:01:07;;;;;;;4.50;4.00;;;;;;;;;;5073316;28;20117;-54
2021/08/06 08:03:33;;;;;;;6.13;4.18;;;;;;;;;;5069883;28;20538;-56
2021/08/06 08:06:00;;;;;;;8.48;3.78;;;;;;;;;;5061418;28;20029;-53
2021/08/06 08:08:26;;;;;;;4.50;3.65;;;;;;;;;;5068393;28;20040;-53
2021/08/06 08:10:52;;;;;;;3.70;3.38;;;;;;;;;;5066625;28;20041;-50
2021/08/06 08:13:18;;;;;;;5.30;4.05;;;;;;;;;;5067816;28;20032;-55
2021/08/06 08:15:44;;;;;;;6.30;3.88;;;;;;;;;;5088057;28;20040;-52
2021/08/06 08:18:10;;;;;;;4.15;3.50;;;;;;;;;;5068271;28;20072;-50
2021/08/06 08:20:37;;;;;;;5.03;3.58;;;;;;;;;;5075944;28;20052;-51
2021/08/06 08:23:03;;;;;;;5.00;3.83;;;;;;;;;;5070960;28;20036;-51
2021/08/06 08:25:29;;;;;;;6.70;3.40;;;;;;;;;;5086010;28;20073;-50
2021/08/06 08:27:55;;;;;;;7.65;3.53;;;;;;;;;;5062669;28;20055;-55
2021/08/06 08:30:21;;;;;;;4.43;3.30;;;;;;;;;;5080022;28;20028;-54
2021/08/06 08:32:47;;;;;;;6.35;2.95;;;;;;;;;;5069356;28;20025;-55
2021/08/06 08:35:13;;;;;;;4.93;2.90;;;;;;;;;;5065856;28;20388;-56
2021/08/06 08:37:39;;;;;;;3.47;3.10;;;;;;;;;;5066048;28;20035;-50
2021/08/06 08:40:06;;;;;;;4.55;3.10;;;;;;;;;;5068823;28;20017;-52
2021/08/06 08:42:32;;;;;;;3.47;2.80;;;;;;;;;;5062400;28;20087;-53
2021/08/06 08:45:01;;;;;;;3.83;3.05;;;;;;;;;;5060795;28;20384;-50
2021/08/06 08:47:27;;;;;;;4.82;2.92;;;;;;;;;;5058523;28;20033;-51
2021/08/06 08:49:54;;;;;;;3.15;2.83;;;;;;;;;;5066681;28;20112;-50
2021/08/06 08:52:21;;;;;;;3.17;2.40;;;;;;;;;;5058384;28;20608;-54
2021/08/06 08:54:47;;;;;;;4.82;3.50;;;;;;;;;;5065045;28;20094;-52
2021/08/06 08:57:17;;;;;;;7.28;2.45;;;;;;;;;;5060865;28;20021;-54
2021/08/06 08:59:43;;;;;;;2.72;2.42;;;;;;;;;;5085510;28;20352;-51
2021/08/06 09:02:10;;;;;;;3.88;2.88;;;;;;;;;;5080807;28;20031;-53
2021/08/06 09:04:36;;;;;;;5.93;2.80;;;;;;;;;;5086522;28;20494;-51
2021/08/06 09:07:02;;;;;;;3.08;2.70;;;;;;;;;;5083560;28;20035;-51
2021/08/06 09:09:29;;;;;;;3.10;2.60;;;;;;;;;;5077545;28;20036;-54
2021/08/06 09:12:09;;;;;;;4.72;2.63;;;;;;;;;;5067019;28;20051;-55
2021/08/06 09:14:36;;;;;;;6.78;2.75;;;;;;;;;;5056850;28;20021;-51
2021/08/06 09:17:03;;;;;;;3.63;3.25;;;;;;;;;;5092947;28;20116;-50
2021/08/06 09:19:34;;;;;;;3.55;2.90;;;;;;;;;;5091335;28;20024;-52
2021/08/06 09:22:08;;;;;;;3.67;2.88;;;;;;;;;;5067319;28;20213;-50
2021/08/06 09:24:34;;;;;;;7.38;3.50;;;;;;;;;;5057399;28;20021;-50
2021/08/06 09:27:00;;;;;;;3.58;3.10;;;;;;;;;;5071625;28;20043;-50
2021/08/06 09:29:26;;;;;;;4.93;3.58;;;;;;;;;;5092781;28;20387;-50
2021/08/06 09:31:52;;;;;;;4.43;3.47;;;;;;;;;;5093365;28;20028;-51
2021/08/06 09:34:20;;;;;;;3.63;3.10;;;;;;;;;;5081663;28;20031;-54
2021/08/06 09:37:00;;;;;;;7.07;2.95;;;;;;;;;;5063902;28;20096;-53
2021/08/06 09:39:30;;;;;;;7.28;2.90;;;;;;;;;;5078266;28;20020;-50
2021/08/06 09:41:56;;;;;;;3.72;2.85;;;;;;;;;;5063550;28;20163;-50
2021/08/06 09:44:23;;;;;;;8.05;2.40;;;;;;;;;;5084679;28;20103;-51
2021/08/06 09:46:49;;;;;;;3.33;2.15;;;;;;;;;;5074454;28;20035;-50
2021/08/06 09:49:18;;;;;;;4.75;2.30;;;;;;;;;;5075613;28;20158;-51
2021/08/06 09:51:44;;;;;;;2.88;2.00;;;;;;;;;;5071843;28;20028;-50
2021/08/06 09:54:18;;;;;;;2.38;2.13;;;;;;;;;;5065489;28;20101;-50
2021/08/06 09:56:44;;;;;;;5.85;2.45;;;;;;;;;;5072993;28;20379;-51
2021/08/06 09:59:10;;;;;;;4.03;2.25;;;;;;;;;;5075327;28;20051;-51
2021/08/06 10:01:36;;;;;;;2.25;1.88;;;;;;;;;;5091331;28;20089;-54
2021/08/06 10:04:15;;;;;;;2.10;1.83;;;;;;;;;;5081157;28;20020;-52
2021/08/06 10:07:00;;;;;;;3.67;2.25;;;;;;;;;;5089889;28;20612;-51
2021/08/06 10:09:27;;;;;;;5.70;2.50;;;;;;;;;;5092307;28;20032;-52
2021/08/06 10:11:53;;;;;;;3.15;2.15;;;;;;;;;;5090339;28;20067;-51
2021/08/06 10:14:19;;;;;;;8.82;2.38;;;;;;;;;;5079536;28;20115;-53
2021/08/06 10:16:46;;;;;;;2.17;1.67;;;;;;;;;;5077594;28;20392;-53
2021/08/06 10:19:13;;;;;;;2.47;1.70;;;;;;;;;;5078642;28;20114;-52
2021/08/06 10:21:40;;;;;;;2.80;2.00;;;;;;;;;;5083660;28;20043;-51
2021/08/06 10:24:06;;;;;;;2.10;1.90;;;;;;;;;;5089674;28;20020;-53
2021/08/06 10:26:33;;;;;;;2.97;1.90;;;;;;;;;;5080270;28;20104;-52
2021/08/06 10:28:59;;;;;;;4.93;2.20;;;;;;;;;;5088683;28;20055;-56
2021/08/06 10:31:25;;;;;;;3.42;1.95;;;;;;;;;;5091303;28;20099;-52
2021/08/06 10:34:11;;;;;;;5.43;1.52;;;;;;;;;;5085464;28;20116;-52
2021/08/06 10:36:41;;;;;;;2.60;1.67;;;;;;;;;;5076917;28;20425;-51
2021/08/06 10:39:29;;;;;;;3.97;1.45;;;;;;;;;;5090464;28;20066;-51
2021/08/06 10:41:55;;;;;;;5.05;1.50;;;;;;;;;;5060202;28;20032;-52
2021/08/06 10:44:21;;;;;;;1.63;1.20;;;;;;;;;;5084025;28;20385;-52
2021/08/06 10:46:54;;;;;;;2.70;1.65;;;;;;;;;;5092631;28;20119;-50
2021/08/06 10:49:20;;;;;;;;;;;;;;;;;;5092635;28;20028;-53
2021/08/06 10:51:47;;;;;;;55.13;4.82;;;;;;;;;;5079724;28;19904;-53
2021/08/06 10:54:13;;;;;;;20.95;2.42;;;;;;;;;;5093263;28;20088;-53
2021/08/06 10:56:40;;;;;;;1.55;0.95;;;;;;;;;;5077327;28;20032;-51
2021/08/06 10:59:13;;;;;;;4.47;1.38;;;;;;;;;;5063960;28;20021;-50
2021/08/06 11:01:48;;;;;;;42.60;5.75;;;;;;;;;;5074097;28;20021;-54
2021/08/06 11:04:14;;;;;;;1.83;1.20;;;;;;;;;;5075910;28;20028;-53
2021/08/06 11:06:40;;;;;;;1.60;1.30;;;;;;;;;;5070122;28;20052;-54
2021/08/06 11:09:07;;;;;;;2.30;1.50;;;;;;;;;;5091432;28;20073;-53
2021/08/06 11:11:45;;;;;;;3.75;1.50;;;;;;;;;;5086951;28;20404;-51
2021/08/06 11:14:11;;;;;;;2.13;1.40;;;;;;;;;;5091750;28;20052;-51
2021/08/06 11:16:57;;;;;;;3.13;1.83;;;;;;;;;;5091989;28;20099;-51
2021/08/06 11:19:35;;;;;;;3.92;1.60;;;;;;;;;;5091328;28;20016;-51
2021/08/06 11:22:02;;;;;;;2.13;1.80;;;;;;;;;;5085786;28;20040;-52
2021/08/06 11:24:35;;;;;;;14.65;2.40;;;;;;;;;;5085825;28;20024;-51
2021/08/06 11:27:03;;;;;;;1.77;1.40;;;;;;;;;;5081376;28;20093;-51
2021/08/06 11:29:29;;;;;;;4.00;2.00;;;;;;;;;;5064691;28;20036;-51
2021/08/06 11:31:58;;;;;;;1.80;1.50;;;;;;;;;;5068191;28;20037;-50
2021/08/06 11:34:24;;;;;;;4.00;1.55;;;;;;;;;;5072093;28;20360;-50
2021/08/06 11:36:58;;;;;;;1.55;1.25;;;;;;;;;;5069749;28;20039;-51
2021/08/06 11:39:24;;;;;;;9.98;1.77;;;;;;;;;;5086590;28;20024;-51
2021/08/06 11:41:51;;;;;;;3.38;2.58;;;;;;;;;;5063156;28;20036;-52
2021/08/06 11:44:17;;;;;;;8.43;2.58;;;;;;;;;;5074957;28;20029;-53
2021/08/06 11:46:50;;;;;;;2.88;1.65;;;;;;;;;;5076335;28;20032;-54
2021/08/06 11:49:16;;;;;;;;;;;;;;;;;;5074119;28;20029;-50
2021/08/06 11:51:49;;;;;;;2.35;1.60;;;;;;;;;;5075385;28;19912;-54
2021/08/06 11:54:15;;;;;;;2.83;1.65;;;;;;;;;;5093209;28;20122;-53
2021/08/06 11:56:46;;;;;;;1.63;1.50;;;;;;;;;;5076476;28;20353;-51
2021/08/06 11:59:12;;;;;;;3.00;1.58;;;;;;;;;;5087249;28;20081;-54
2021/08/06 12:01:38;;;;;;;15.73;2.30;;;;;;;;;;5090076;28;20041;-52
2021/08/06 12:04:04;;;;;;;1.80;1.52;;;;;;;;;;5072232;28;20032;-55
2021/08/06 12:06:31;;;;;;;3.35;1.70;;;;;;;;;;5087746;28;20024;-52
2021/08/06 12:08:58;;;;;;;5.10;1.80;;;;;;;;;;5069582;28;20025;-50
2021/08/06 12:11:25;;;;;;;6.13;1.52;;;;;;;;;;5082171;28;20067;-52
2021/08/06 12:13:52;;;;;;;3.45;1.60;;;;;;;;;;5067728;28;20040;-52
2021/08/06 12:16:26;;;;;;;1.85;1.25;;;;;;;;;;5108212;28;20024;-57
2021/08/06 12:18:56;;;;;;;2.00;1.02;;;;;;;;;;5069270;28;20578;-53
2021/08/06 12:21:26;;;;;;;3.60;1.10;;;;;;;;;;5079359;28;20013;-55
2021/08/06 12:23:54;;;;;;;2.22;1.15;;;;;;;;;;5066647;28;20457;-53
2021/08/06 12:26:44;;;;;;;1.48;1.10;;;;;;;;;;5070907;28;20028;-51
2021/08/06 12:29:10;;;;;;;1.30;0.90;;;;;;;;;;5062361;28;20055;-53
2021/08/06 12:31:55;;;;;;;2.67;1.52;;;;;;;;;;5064966;28;20033;-51
2021/08/06 12:34:22;;;;;;;2.85;1.20;;;;;;;;;;5072621;28;20036;-50
2021/08/06 12:37:03;;;;;;;5.03;1.20;;;;;;;;;;5093505;28;20067;-50
2021/08/06 12:39:31;;;;;;;3.63;1.10;;;;;;;;;;5093935;28;20024;-52
2021/08/06 12:42:10;;;;;;;2.67;1.30;;;;;;;;;;5086144;28;20028;-49
2021/08/06 12:44:36;;;;;;;3.55;1.25;;;;;;;;;;5072023;28;20024;-52
2021/08/06 12:47:11;;;;;;;2.08;1.20;;;;;;;;;;5075975;28;20114;-50
2021/08/06 12:49:45;;;;;;;2.33;1.20;;;;;;;;;;5084222;28;20027;-53
2021/08/06 12:52:22;;;;;;;2.72;1.42;;;;;;;;;;5065913;28;20024;-52
2021/08/06 12:54:51;;;;;;;6.90;1.52;;;;;;;;;;5060840;28;20029;-51
2021/08/06 12:57:17;;;;;;;1.27;1.00;;;;;;;;;;5082987;28;20116;-50
2021/08/06 12:59:44;;;;;;;2.55;1.45;;;;;;;;;;5089249;28;20111;-52
2021/08/06 13:02:14;;;;;;;2.58;1.25;;;;;;;;;;5081064;28;20077;-53
2021/08/06 13:04:40;;;;;;;2.03;1.20;;;;;;;;;;5077008;28;20112;-55
2021/08/06 13:07:06;;;;;;;1.88;1.00;;;;;;;;;;5091457;28;20433;-52
2021/08/06 13:09:42;;;;;;;3.75;1.27;;;;;;;;;;5087606;28;20062;-53
2021/08/06 13:12:10;;;;;;;1.30;1.00;;;;;;;;;;5086693;28;20062;-55
2021/08/06 13:14:36;;;;;;;1.58;1.02;;;;;;;;;;5085925;28;20040;-54
2021/08/06 13:17:02;;;;;;;2.03;1.00;;;;;;;;;;5078303;28;20036;-52
2021/08/06 13:19:28;;;;;;;2.00;0.95;;;;;;;;;;5067290;28;20051;-53
2021/08/06 13:21:58;;;;;;;4.57;0.88;;;;;;;;;;5058292;28;20052;-54
2021/08/06 13:24:24;;;;;;;7.97;1.88;;;;;;;;;;5070439;28;20036;-52
2021/08/06 13:26:50;;;;;;;1.00;0.82;;;;;;;;;;5064435;28;20392;-49
2021/08/06 13:29:16;;;;;;;2.22;0.77;;;;;;;;;;5088274;28;20028;-50
2021/08/06 13:31:42;;;;;;;1.63;0.82;;;;;;;;;;5092926;28;20157;-51
2021/08/06 13:34:08;;;;;;;2.42;0.90;;;;;;;;;;5074754;28;20017;-52
2021/08/06 13:36:34;;;;;;;1.30;0.88;;;;;;;;;;5058006;28;20028;-51
2021/08/06 13:39:00;;;;;;;0.60;0.60;;;;;;;;;;5075119;28;20056;-54
2021/08/06 13:41:26;;;;;;;2.97;0.70;;;;;;;;;;5073270;28;20024;-55
2021/08/06 13:43:52;;;;;;;1.55;0.80;;;;;;;;;;5076279;28;20032;-54
2021/08/06 13:46:18;;;;;;;1.25;0.85;;;;;;;;;;5073300;28;20053;-55
2021/08/06 13:48:44;;;;;;;1.38;0.80;;;;;;;;;;5071318;28;20036;-51
2021/08/06 13:51:09;;;;;;;1.50;0.98;;;;;;;;;;5062899;28;20032;-53
2021/08/06 13:53:35;;;;;;;4.40;0.77;;;;;;;;;;5082599;28;20765;-50
2021/08/06 13:56:01;;;;;;;1.33;0.68;;;;;;;;;;5068109;28;20032;-50
2021/08/06 13:58:28;;;;;;;1.75;1.02;;;;;;;;;;5069018;28;20111;-52
2021/08/06 14:00:54;;;;;;;3.70;0.70;;;;;;;;;;5092751;28;20024;-49
2021/08/06 14:03:20;;;;;;;0.95;0.63;;;;;;;;;;5082217;28;20027;-50
2021/08/06 14:05:46;;;;;;;1.00;0.52;;;;;;;;;;5076958;28;20114;-53
2021/08/06 14:08:13;;;;;;;1.25;0.60;;;;;;;;;;5090235;28;20024;-50
2021/08/06 14:10:39;;;;;;;0.82;0.52;;;;;;;;;;5069976;28;20044;-53
2021/08/06 14:13:07;;;;;;;0.73;0.50;;;;;;;;;;5092001;28;20503;-49
2021/08/06 14:15:33;;;;;;;1.27;0.47;;;;;;;;;;5092654;28;20449;-55
2021/08/06 14:17:59;;;;;;;0.68;0.40;;;;;;;;;;5078527;28;20040;-55
2021/08/06 14:20:25;;;;;;;1.02;0.50;;;;;;;;;;5073090;28;20414;-55
2021/08/06 14:22:51;;;;;;;1.00;0.57;;;;;;;;;;5059425;28;20487;-52
2021/08/06 14:25:17;;;;;;;0.82;0.50;;;;;;;;;;5060403;28;20025;-50
2021/08/06 14:27:43;;;;;;;0.68;0.40;;;;;;;;;;5079533;28;20055;-52
2021/08/06 14:30:09;;;;;;;1.17;0.45;;;;;;;;;;5069407;28;20021;-52
2021/08/06 14:32:35;;;;;;;0.75;0.47;;;;;;;;;;5084886;28;20036;-52
2021/08/06 14:35:01;;;;;;;2.25;0.50;;;;;;;;;;5070230;28;20039;-55
2021/08/06 14:37:27;;;;;;;0.32;0.28;;;;;;;;;;5088696;28;20090;-49
2021/08/06 14:39:53;;;;;;;0.43;0.32;;;;;;;;;;5058527;28;20637;-54